sensor_id;sensor_type;location;lat;lon;timestamp;P1;durP1;ratioP1;P2;durP2;ratioP2
25962;SDS011;13760;52.588;13.406;2023-04-01T00:00:05;13.13;;;6.97;;
25962;SDS011;13760;52.588;13.406;2023-04-01T00:02:34;16.88;;;7.65;;
25962;SDS011;13760;52.588;13.406;2023-04-01T00:05:00;13.13;;;7.20;;
25962;SDS011;13760;52.588;13.406;2023-04-01T00:07:26;13.40;;;7.55;;
25962;SDS011;13760;52.588;13.406;2023-04-01T00:09:52;17.63;;;7.43;;
25962;SDS011;13760;52.588;13.406;2023-04-01T00:12:17;15.55;;;7.68;;
25962;SDS011;13760;52.588;13.406;2023-04-01T00:14:43;15.65;;;7.72;;
25962;SDS011;13760;52.588;13.406;2023-04-01T00:17:09;15.90;;;7.85;;
25962;SDS011;13760;52.588;13.406;2023-04-01T00:19:35;13.73;;;7.18;;
25962;SDS011;13760;52.588;13.406;2023-04-01T00:22:01;11.57;;;7.53;;
25962;SDS011;13760;52.588;13.406;2023-04-01T00:24:27;16.42;;;7.85;;
25962;SDS011;13760;52.588;13.406;2023-04-01T00:26:53;17.85;;;8.38;;
25962;SDS011;13760;52.588;13.406;2023-04-01T00:29:19;13.88;;;7.70;;
25962;SDS011;13760;52.588;13.406;2023-04-01T00:31:45;15.90;;;7.85;;
25962;SDS011;13760;52.588;13.406;2023-04-01T00:34:10;17.60;;;8.30;;
25962;SDS011;13760;52.588;13.406;2023-04-01T00:36:37;19.40;;;8.43;;
25962;SDS011;13760;52.588;13.406;2023-04-01T00:39:03;25.38;;;10.35;;
25962;SDS011;13760;52.588;13.406;2023-04-01T00:41:29;26.13;;;10.80;;
25962;SDS011;13760;52.588;13.406;2023-04-01T00:44:11;20.35;;;8.90;;
25962;SDS011;13760;52.588;13.406;2023-04-01T00:46:41;19.63;;;8.77;;
25962;SDS011;13760;52.588;13.406;2023-04-01T00:49:06;19.95;;;8.77;;
25962;SDS011;13760;52.588;13.406;2023-04-01T00:51:33;18.08;;;8.45;;
25962;SDS011;13760;52.588;13.406;2023-04-01T00:54:01;17.27;;;8.77;;
25962;SDS011;13760;52.588;13.406;2023-04-01T00:56:35;17.00;;;8.15;;
25962;SDS011;13760;52.588;13.406;2023-04-01T00:59:05;14.20;;;7.47;;
25962;SDS011;13760;52.588;13.406;2023-04-01T01:01:35;14.23;;;7.88;;
25962;SDS011;13760;52.588;13.406;2023-04-01T01:04:02;15.38;;;7.60;;
25962;SDS011;13760;52.588;13.406;2023-04-01T01:06:35;17.70;;;7.72;;
25962;SDS011;13760;52.588;13.406;2023-04-01T01:12:41;15.70;;;7.20;;
25962;SDS011;13760;52.588;13.406;2023-04-01T01:15:26;13.35;;;7.57;;
25962;SDS011;13760;52.588;13.406;2023-04-01T01:18:09;14.70;;;8.15;;
25962;SDS011;13760;52.588;13.406;2023-04-01T01:20:42;14.50;;;7.35;;
25962;SDS011;13760;52.588;13.406;2023-04-01T01:24:02;14.52;;;7.95;;
25962;SDS011;13760;52.588;13.406;2023-04-01T01:27:11;15.43;;;7.88;;
25962;SDS011;13760;52.588;13.406;2023-04-01T01:29:48;13.25;;;7.53;;
25962;SDS011;13760;52.588;13.406;2023-04-01T01:35:19;15.27;;;7.63;;
25962;SDS011;13760;52.588;13.406;2023-04-01T01:37:59;18.83;;;8.43;;
25962;SDS011;13760;52.588;13.406;2023-04-01T01:40:27;12.05;;;7.30;;
25962;SDS011;13760;52.588;13.406;2023-04-01T01:42:56;23.45;;;8.45;;
25962;SDS011;13760;52.588;13.406;2023-04-01T01:45:26;14.77;;;8.07;;
25962;SDS011;13760;52.588;13.406;2023-04-01T01:47:54;13.60;;;7.70;;
25962;SDS011;13760;52.588;13.406;2023-04-01T01:50:21;14.02;;;8.07;;
25962;SDS011;13760;52.588;13.406;2023-04-01T01:52:47;15.02;;;8.43;;
25962;SDS011;13760;52.588;13.406;2023-04-01T01:55:32;17.63;;;8.45;;
25962;SDS011;13760;52.588;13.406;2023-04-01T01:58:07;15.45;;;7.85;;
25962;SDS011;13760;52.588;13.406;2023-04-01T02:00:43;18.38;;;8.38;;
25962;SDS011;13760;52.588;13.406;2023-04-01T02:03:13;18.95;;;7.50;;
25962;SDS011;13760;52.588;13.406;2023-04-01T02:05:40;17.25;;;7.57;;
25962;SDS011;13760;52.588;13.406;2023-04-01T02:08:12;18.80;;;7.60;;
25962;SDS011;13760;52.588;13.406;2023-04-01T02:10:42;16.35;;;8.10;;
25962;SDS011;13760;52.588;13.406;2023-04-01T02:13:17;21.13;;;8.52;;
25962;SDS011;13760;52.588;13.406;2023-04-01T02:15:50;15.45;;;7.65;;
25962;SDS011;13760;52.588;13.406;2023-04-01T02:18:21;17.60;;;7.32;;
25962;SDS011;13760;52.588;13.406;2023-04-01T02:20:47;18.27;;;7.22;;
25962;SDS011;13760;52.588;13.406;2023-04-01T02:23:14;11.48;;;6.45;;
25962;SDS011;13760;52.588;13.406;2023-04-01T02:25:40;13.73;;;6.95;;
25962;SDS011;13760;52.588;13.406;2023-04-01T02:28:07;25.48;;;7.57;;
25962;SDS011;13760;52.588;13.406;2023-04-01T02:30:35;15.55;;;7.20;;
25962;SDS011;13760;52.588;13.406;2023-04-01T02:33:03;16.73;;;7.35;;
25962;SDS011;13760;52.588;13.406;2023-04-01T02:35:30;14.88;;;7.32;;
25962;SDS011;13760;52.588;13.406;2023-04-01T02:37:57;11.70;;;7.10;;
25962;SDS011;13760;52.588;13.406;2023-04-01T02:40:23;18.52;;;7.25;;
25962;SDS011;13760;52.588;13.406;2023-04-01T02:42:49;15.30;;;7.55;;
25962;SDS011;13760;52.588;13.406;2023-04-01T02:45:14;19.08;;;8.02;;
25962;SDS011;13760;52.588;13.406;2023-04-01T02:47:40;20.30;;;7.40;;
25962;SDS011;13760;52.588;13.406;2023-04-01T02:50:06;18.45;;;7.50;;
25962;SDS011;13760;52.588;13.406;2023-04-01T02:52:32;18.80;;;7.80;;
25962;SDS011;13760;52.588;13.406;2023-04-01T02:54:58;20.48;;;8.90;;
25962;SDS011;13760;52.588;13.406;2023-04-01T02:57:24;24.13;;;8.63;;
25962;SDS011;13760;52.588;13.406;2023-04-01T02:59:50;16.73;;;7.43;;
25962;SDS011;13760;52.588;13.406;2023-04-01T03:02:16;16.00;;;7.78;;
25962;SDS011;13760;52.588;13.406;2023-04-01T03:04:42;16.92;;;8.38;;
25962;SDS011;13760;52.588;13.406;2023-04-01T03:07:08;19.20;;;8.75;;
25962;SDS011;13760;52.588;13.406;2023-04-01T03:09:37;24.40;;;8.82;;
25962;SDS011;13760;52.588;13.406;2023-04-01T03:12:03;16.83;;;8.57;;
25962;SDS011;13760;52.588;13.406;2023-04-01T03:14:29;18.73;;;8.88;;
25962;SDS011;13760;52.588;13.406;2023-04-01T03:16:55;22.45;;;8.80;;
25962;SDS011;13760;52.588;13.406;2023-04-01T03:19:20;17.40;;;8.85;;
25962;SDS011;13760;52.588;13.406;2023-04-01T03:21:46;17.50;;;8.23;;
25962;SDS011;13760;52.588;13.406;2023-04-01T03:24:11;17.70;;;8.23;;
25962;SDS011;13760;52.588;13.406;2023-04-01T03:26:37;20.80;;;8.38;;
25962;SDS011;13760;52.588;13.406;2023-04-01T03:29:02;17.05;;;8.30;;
25962;SDS011;13760;52.588;13.406;2023-04-01T03:31:28;17.58;;;8.60;;
25962;SDS011;13760;52.588;13.406;2023-04-01T03:33:54;18.85;;;8.27;;
25962;SDS011;13760;52.588;13.406;2023-04-01T03:36:19;21.63;;;8.88;;
25962;SDS011;13760;52.588;13.406;2023-04-01T03:38:45;19.60;;;8.57;;
25962;SDS011;13760;52.588;13.406;2023-04-01T03:41:11;21.75;;;9.23;;
25962;SDS011;13760;52.588;13.406;2023-04-01T03:43:38;24.65;;;10.57;;
25962;SDS011;13760;52.588;13.406;2023-04-01T03:46:03;19.60;;;9.07;;
25962;SDS011;13760;52.588;13.406;2023-04-01T03:48:29;25.80;;;10.30;;
25962;SDS011;13760;52.588;13.406;2023-04-01T03:50:55;26.02;;;10.18;;
25962;SDS011;13760;52.588;13.406;2023-04-01T03:53:21;23.98;;;10.95;;
25962;SDS011;13760;52.588;13.406;2023-04-01T03:55:47;26.90;;;11.30;;
25962;SDS011;13760;52.588;13.406;2023-04-01T03:58:12;23.20;;;10.00;;
25962;SDS011;13760;52.588;13.406;2023-04-01T04:00:38;24.90;;;10.32;;
25962;SDS011;13760;52.588;13.406;2023-04-01T04:03:03;24.15;;;11.35;;
25962;SDS011;13760;52.588;13.406;2023-04-01T04:05:30;27.00;;;11.23;;
25962;SDS011;13760;52.588;13.406;2023-04-01T04:07:56;26.33;;;12.05;;
25962;SDS011;13760;52.588;13.406;2023-04-01T04:10:21;25.75;;;12.80;;
25962;SDS011;13760;52.588;13.406;2023-04-01T04:12:48;27.73;;;11.82;;
25962;SDS011;13760;52.588;13.406;2023-04-01T04:15:15;32.78;;;13.15;;
25962;SDS011;13760;52.588;13.406;2023-04-01T04:17:40;24.17;;;12.98;;
25962;SDS011;13760;52.588;13.406;2023-04-01T04:20:06;25.63;;;13.35;;
25962;SDS011;13760;52.588;13.406;2023-04-01T04:22:33;27.73;;;13.55;;
25962;SDS011;13760;52.588;13.406;2023-04-01T04:24:58;32.00;;;14.15;;
25962;SDS011;13760;52.588;13.406;2023-04-01T04:27:24;31.85;;;14.27;;
25962;SDS011;13760;52.588;13.406;2023-04-01T04:29:50;29.00;;;14.07;;
25962;SDS011;13760;52.588;13.406;2023-04-01T04:32:15;22.65;;;12.13;;
25962;SDS011;13760;52.588;13.406;2023-04-01T04:34:41;28.50;;;12.32;;
25962;SDS011;13760;52.588;13.406;2023-04-01T04:37:06;24.90;;;11.85;;
25962;SDS011;13760;52.588;13.406;2023-04-01T04:39:32;26.38;;;12.77;;
25962;SDS011;13760;52.588;13.406;2023-04-01T04:41:57;27.42;;;11.98;;
25962;SDS011;13760;52.588;13.406;2023-04-01T04:44:23;24.70;;;11.00;;
25962;SDS011;13760;52.588;13.406;2023-04-01T04:46:48;30.60;;;11.63;;
25962;SDS011;13760;52.588;13.406;2023-04-01T04:49:14;24.77;;;11.18;;
25962;SDS011;13760;52.588;13.406;2023-04-01T04:51:39;21.60;;;11.38;;
25962;SDS011;13760;52.588;13.406;2023-04-01T04:54:05;22.02;;;11.80;;
25962;SDS011;13760;52.588;13.406;2023-04-01T04:56:31;22.10;;;11.30;;
25962;SDS011;13760;52.588;13.406;2023-04-01T04:58:57;20.50;;;11.20;;
25962;SDS011;13760;52.588;13.406;2023-04-01T05:01:23;24.67;;;11.80;;
25962;SDS011;13760;52.588;13.406;2023-04-01T05:03:49;27.65;;;11.52;;
25962;SDS011;13760;52.588;13.406;2023-04-01T05:06:16;22.65;;;11.40;;
25962;SDS011;13760;52.588;13.406;2023-04-01T05:08:42;22.33;;;11.02;;
25962;SDS011;13760;52.588;13.406;2023-04-01T05:11:10;25.75;;;11.13;;
25962;SDS011;13760;52.588;13.406;2023-04-01T05:13:38;23.65;;;9.95;;
25962;SDS011;13760;52.588;13.406;2023-04-01T05:16:07;27.50;;;10.82;;
25962;SDS011;13760;52.588;13.406;2023-04-01T05:18:34;22.48;;;10.52;;
25962;SDS011;13760;52.588;13.406;2023-04-01T05:20:59;23.60;;;9.70;;
25962;SDS011;13760;52.588;13.406;2023-04-01T05:23:25;23.77;;;9.05;;
25962;SDS011;13760;52.588;13.406;2023-04-01T05:25:50;23.92;;;9.48;;
25962;SDS011;13760;52.588;13.406;2023-04-01T05:28:17;25.20;;;10.32;;
25962;SDS011;13760;52.588;13.406;2023-04-01T05:30:43;20.27;;;10.23;;
25962;SDS011;13760;52.588;13.406;2023-04-01T05:33:09;19.75;;;11.13;;
25962;SDS011;13760;52.588;13.406;2023-04-01T05:35:36;32.95;;;12.07;;
25962;SDS011;13760;52.588;13.406;2023-04-01T05:38:02;22.85;;;11.60;;
25962;SDS011;13760;52.588;13.406;2023-04-01T05:40:28;31.45;;;11.68;;
25962;SDS011;13760;52.588;13.406;2023-04-01T05:42:54;21.27;;;11.18;;
25962;SDS011;13760;52.588;13.406;2023-04-01T05:45:20;22.08;;;10.57;;
25962;SDS011;13760;52.588;13.406;2023-04-01T05:47:45;27.73;;;12.55;;
25962;SDS011;13760;52.588;13.406;2023-04-01T05:50:11;29.65;;;13.20;;
25962;SDS011;13760;52.588;13.406;2023-04-01T05:52:37;28.20;;;12.90;;
25962;SDS011;13760;52.588;13.406;2023-04-01T05:55:04;27.52;;;12.88;;
25962;SDS011;13760;52.588;13.406;2023-04-01T05:57:30;30.40;;;12.80;;
25962;SDS011;13760;52.588;13.406;2023-04-01T05:59:56;29.75;;;14.00;;
25962;SDS011;13760;52.588;13.406;2023-04-01T06:02:25;25.58;;;13.85;;
25962;SDS011;13760;52.588;13.406;2023-04-01T06:04:53;30.42;;;14.43;;
25962;SDS011;13760;52.588;13.406;2023-04-01T06:07:27;30.55;;;13.27;;
25962;SDS011;13760;52.588;13.406;2023-04-01T06:09:53;34.35;;;12.80;;
25962;SDS011;13760;52.588;13.406;2023-04-01T06:12:34;27.17;;;12.98;;
25962;SDS011;13760;52.588;13.406;2023-04-01T06:15:10;33.60;;;13.68;;
25962;SDS011;13760;52.588;13.406;2023-04-01T06:31:10;35.15;;;15.38;;
25962;SDS011;13760;52.588;13.406;2023-04-01T06:42:21;27.50;;;13.43;;
25962;SDS011;13760;52.588;13.406;2023-04-01T06:45:22;30.35;;;13.68;;
25962;SDS011;13760;52.588;13.406;2023-04-01T06:51:26;42.08;;;16.10;;
25962;SDS011;13760;52.588;13.406;2023-04-01T06:56:44;32.10;;;14.18;;
25962;SDS011;13760;52.588;13.406;2023-04-01T06:59:19;29.27;;;14.18;;
25962;SDS011;13760;52.588;13.406;2023-04-01T07:02:00;35.38;;;15.10;;
25962;SDS011;13760;52.588;13.406;2023-04-01T07:04:34;33.03;;;14.98;;
25962;SDS011;13760;52.588;13.406;2023-04-01T07:09:50;33.00;;;14.57;;
25962;SDS011;13760;52.588;13.406;2023-04-01T07:12:27;37.95;;;14.77;;
25962;SDS011;13760;52.588;13.406;2023-04-01T07:15:00;27.63;;;14.60;;
25962;SDS011;13760;52.588;13.406;2023-04-01T07:17:41;30.10;;;13.13;;
25962;SDS011;13760;52.588;13.406;2023-04-01T07:20:41;31.10;;;13.98;;
25962;SDS011;13760;52.588;13.406;2023-04-01T07:23:06;36.15;;;13.55;;
25962;SDS011;13760;52.588;13.406;2023-04-01T07:25:41;34.28;;;13.45;;
25962;SDS011;13760;52.588;13.406;2023-04-01T07:28:14;23.08;;;13.85;;
25962;SDS011;13760;52.588;13.406;2023-04-01T07:30:50;32.67;;;13.98;;
25962;SDS011;13760;52.588;13.406;2023-04-01T07:33:33;30.35;;;14.10;;
25962;SDS011;13760;52.588;13.406;2023-04-01T07:36:10;28.38;;;14.18;;
25962;SDS011;13760;52.588;13.406;2023-04-01T07:38:55;39.22;;;16.20;;
25962;SDS011;13760;52.588;13.406;2023-04-01T07:41:38;34.90;;;16.30;;
25962;SDS011;13760;52.588;13.406;2023-04-01T07:49:57;21.65;;;9.70;;
25962;SDS011;13760;52.588;13.406;2023-04-01T07:52:36;21.42;;;9.43;;
25962;SDS011;13760;52.588;13.406;2023-04-01T07:55:07;23.20;;;10.50;;
25962;SDS011;13760;52.588;13.406;2023-04-01T08:14:38;36.08;;;14.10;;
25962;SDS011;13760;52.588;13.406;2023-04-01T08:17:33;46.92;;;16.00;;
25962;SDS011;13760;52.588;13.406;2023-04-01T08:23:16;49.65;;;16.65;;
25962;SDS011;13760;52.588;13.406;2023-04-01T08:31:23;43.47;;;15.68;;
25962;SDS011;13760;52.588;13.406;2023-04-01T08:34:10;50.85;;;19.50;;
25962;SDS011;13760;52.588;13.406;2023-04-01T08:36:44;44.85;;;20.00;;
25962;SDS011;13760;52.588;13.406;2023-04-01T08:39:31;50.55;;;20.35;;
25962;SDS011;13760;52.588;13.406;2023-04-01T08:42:31;56.47;;;20.58;;
25962;SDS011;13760;52.588;13.406;2023-04-01T08:45:11;49.35;;;20.77;;
25962;SDS011;13760;52.588;13.406;2023-04-01T09:01:15;48.25;;;24.35;;
25962;SDS011;13760;52.588;13.406;2023-04-01T09:04:08;45.67;;;23.15;;
25962;SDS011;13760;52.588;13.406;2023-04-01T09:07:13;41.40;;;21.50;;
25962;SDS011;13760;52.588;13.406;2023-04-01T09:13:15;42.92;;;22.13;;
25962;SDS011;13760;52.588;13.406;2023-04-01T09:21:56;33.15;;;19.30;;
25962;SDS011;13760;52.588;13.406;2023-04-01T09:27:44;36.05;;;20.50;;
25962;SDS011;13760;52.588;13.406;2023-04-01T09:30:28;41.40;;;22.33;;
25962;SDS011;13760;52.588;13.406;2023-04-01T09:33:15;48.25;;;23.70;;
25962;SDS011;13760;52.588;13.406;2023-04-01T09:36:03;42.47;;;23.17;;
25962;SDS011;13760;52.588;13.406;2023-04-01T09:41:31;38.45;;;21.40;;
25962;SDS011;13760;52.588;13.406;2023-04-01T09:44:23;37.80;;;21.67;;
25962;SDS011;13760;52.588;13.406;2023-04-01T10:01:12;33.60;;;20.85;;
25962;SDS011;13760;52.588;13.406;2023-04-01T10:20:54;40.03;;;23.25;;
25962;SDS011;13760;52.588;13.406;2023-04-01T10:28:57;32.15;;;23.15;;
25962;SDS011;13760;52.588;13.406;2023-04-01T10:31:36;36.03;;;23.98;;
25962;SDS011;13760;52.588;13.406;2023-04-01T10:34:31;36.35;;;24.30;;
25962;SDS011;13760;52.588;13.406;2023-04-01T10:48:20;32.22;;;20.88;;
25962;SDS011;13760;52.588;13.406;2023-04-01T10:51:04;26.77;;;18.90;;
25962;SDS011;13760;52.588;13.406;2023-04-01T10:53:49;34.95;;;20.38;;
25962;SDS011;13760;52.588;13.406;2023-04-01T10:56:45;34.22;;;20.70;;
25962;SDS011;13760;52.588;13.406;2023-04-01T10:59:25;34.60;;;21.35;;
25962;SDS011;13760;52.588;13.406;2023-04-01T11:04:56;35.85;;;21.95;;
25962;SDS011;13760;52.588;13.406;2023-04-01T11:24:32;36.33;;;22.50;;
25962;SDS011;13760;52.588;13.406;2023-04-01T11:27:25;34.67;;;21.85;;
25962;SDS011;13760;52.588;13.406;2023-04-01T11:30:33;28.95;;;20.15;;
25962;SDS011;13760;52.588;13.406;2023-04-01T11:35:57;29.30;;;21.98;;
25962;SDS011;13760;52.588;13.406;2023-04-01T11:38:57;30.90;;;22.55;;
25962;SDS011;13760;52.588;13.406;2023-04-01T11:44:16;32.85;;;22.70;;
25962;SDS011;13760;52.588;13.406;2023-04-01T11:49:47;31.23;;;22.80;;
25962;SDS011;13760;52.588;13.406;2023-04-01T11:55:28;25.80;;;20.20;;
25962;SDS011;13760;52.588;13.406;2023-04-01T12:06:54;27.38;;;20.52;;
25962;SDS011;13760;52.588;13.406;2023-04-01T12:09:44;27.10;;;20.30;;
25962;SDS011;13760;52.588;13.406;2023-04-01T12:15:26;27.33;;;20.00;;
25962;SDS011;13760;52.588;13.406;2023-04-01T12:20:50;25.02;;;19.98;;
25962;SDS011;13760;52.588;13.406;2023-04-01T12:26:35;23.67;;;18.65;;
25962;SDS011;13760;52.588;13.406;2023-04-01T12:32:01;25.20;;;19.35;;
25962;SDS011;13760;52.588;13.406;2023-04-01T12:34:49;24.13;;;18.90;;
25962;SDS011;13760;52.588;13.406;2023-04-01T12:40:33;25.45;;;18.80;;
25962;SDS011;13760;52.588;13.406;2023-04-01T12:49:15;28.38;;;21.75;;
25962;SDS011;13760;52.588;13.406;2023-04-01T12:55:08;33.55;;;24.50;;
25962;SDS011;13760;52.588;13.406;2023-04-01T13:06:46;37.03;;;24.13;;
25962;SDS011;13760;52.588;13.406;2023-04-01T13:09:19;32.90;;;24.02;;
25962;SDS011;13760;52.588;13.406;2023-04-01T13:26:05;31.30;;;21.45;;
25962;SDS011;13760;52.588;13.406;2023-04-01T13:28:50;32.40;;;22.17;;
25962;SDS011;13760;52.588;13.406;2023-04-01T13:31:32;32.75;;;22.27;;
25962;SDS011;13760;52.588;13.406;2023-04-01T13:34:17;27.73;;;19.73;;
25962;SDS011;13760;52.588;13.406;2023-04-01T13:37:02;25.90;;;17.52;;
25962;SDS011;13760;52.588;13.406;2023-04-01T13:42:40;19.60;;;14.80;;
25962;SDS011;13760;52.588;13.406;2023-04-01T13:45:16;20.85;;;13.75;;
25962;SDS011;13760;52.588;13.406;2023-04-01T13:53:43;16.33;;;11.27;;
25962;SDS011;13760;52.588;13.406;2023-04-01T13:56:26;13.57;;;9.50;;
25962;SDS011;13760;52.588;13.406;2023-04-01T14:01:55;17.90;;;10.82;;
25962;SDS011;13760;52.588;13.406;2023-04-01T14:05:15;21.88;;;12.73;;
25962;SDS011;13760;52.588;13.406;2023-04-01T14:07:35;18.48;;;11.50;;
25962;SDS011;13760;52.588;13.406;2023-04-01T14:18:51;15.30;;;9.65;;
25962;SDS011;13760;52.588;13.406;2023-04-01T14:21:33;12.43;;;9.20;;
25962;SDS011;13760;52.588;13.406;2023-04-01T14:27:09;12.50;;;9.45;;
25962;SDS011;13760;52.588;13.406;2023-04-01T14:39:13;14.60;;;8.68;;
25962;SDS011;13760;52.588;13.406;2023-04-01T14:45:12;11.82;;;7.82;;
25962;SDS011;13760;52.588;13.406;2023-04-01T14:50:43;17.83;;;9.88;;
25962;SDS011;13760;52.588;13.406;2023-04-01T14:55:55;13.45;;;7.85;;
25962;SDS011;13760;52.588;13.406;2023-04-01T14:58:27;9.23;;;7.43;;
25962;SDS011;13760;52.588;13.406;2023-04-01T15:04:21;14.48;;;9.50;;
25962;SDS011;13760;52.588;13.406;2023-04-01T15:07:21;14.90;;;8.68;;
25962;SDS011;13760;52.588;13.406;2023-04-01T15:12:58;15.63;;;11.05;;
25962;SDS011;13760;52.588;13.406;2023-04-01T15:15:44;19.13;;;11.65;;
25962;SDS011;13760;52.588;13.406;2023-04-01T15:24:46;16.67;;;11.07;;
25962;SDS011;13760;52.588;13.406;2023-04-01T15:27:34;18.33;;;12.90;;
25962;SDS011;13760;52.588;13.406;2023-04-01T15:30:18;19.75;;;12.50;;
25962;SDS011;13760;52.588;13.406;2023-04-01T15:38:51;14.77;;;10.80;;
25962;SDS011;13760;52.588;13.406;2023-04-01T15:47:25;18.98;;;11.38;;
25962;SDS011;13760;52.588;13.406;2023-04-01T15:55:48;17.17;;;11.35;;
25962;SDS011;13760;52.588;13.406;2023-04-01T15:58:41;14.50;;;10.68;;
25962;SDS011;13760;52.588;13.406;2023-04-01T16:04:21;13.02;;;9.75;;
25962;SDS011;13760;52.588;13.406;2023-04-01T16:06:59;17.15;;;9.98;;
25962;SDS011;13760;52.588;13.406;2023-04-01T16:09:59;14.57;;;10.02;;
25962;SDS011;13760;52.588;13.406;2023-04-01T16:24:12;13.70;;;10.15;;
25962;SDS011;13760;52.588;13.406;2023-04-01T16:32:50;11.55;;;9.40;;
25962;SDS011;13760;52.588;13.406;2023-04-01T16:35:46;14.50;;;8.88;;
25962;SDS011;13760;52.588;13.406;2023-04-01T16:41:15;13.80;;;8.82;;
25962;SDS011;13760;52.588;13.406;2023-04-01T16:43:56;15.27;;;8.90;;
25962;SDS011;13760;52.588;13.406;2023-04-01T16:46:44;12.05;;;8.70;;
25962;SDS011;13760;52.588;13.406;2023-04-01T16:51:57;15.73;;;8.73;;
25962;SDS011;13760;52.588;13.406;2023-04-01T16:54:45;12.23;;;8.38;;
25962;SDS011;13760;52.588;13.406;2023-04-01T16:57:19;15.63;;;8.13;;
25962;SDS011;13760;52.588;13.406;2023-04-01T17:02:57;13.70;;;8.13;;
25962;SDS011;13760;52.588;13.406;2023-04-01T17:05:44;12.90;;;8.77;;
25962;SDS011;13760;52.588;13.406;2023-04-01T17:19:35;13.73;;;8.55;;
25962;SDS011;13760;52.588;13.406;2023-04-01T17:22:17;13.50;;;9.85;;
25962;SDS011;13760;52.588;13.406;2023-04-01T17:24:57;13.20;;;8.98;;
25962;SDS011;13760;52.588;13.406;2023-04-01T17:38:56;11.57;;;8.18;;
25962;SDS011;13760;52.588;13.406;2023-04-01T17:47:24;11.85;;;8.00;;
25962;SDS011;13760;52.588;13.406;2023-04-01T17:50:20;17.45;;;8.75;;
25962;SDS011;13760;52.588;13.406;2023-04-01T17:52:57;14.15;;;7.85;;
25962;SDS011;13760;52.588;13.406;2023-04-01T17:55:37;14.00;;;8.85;;
25962;SDS011;13760;52.588;13.406;2023-04-01T17:58:13;14.65;;;8.68;;
25962;SDS011;13760;52.588;13.406;2023-04-01T18:06:17;13.82;;;8.88;;
25962;SDS011;13760;52.588;13.406;2023-04-01T18:08:54;15.20;;;9.43;;
25962;SDS011;13760;52.588;13.406;2023-04-01T18:23:03;19.25;;;11.77;;
25962;SDS011;13760;52.588;13.406;2023-04-01T18:25:52;17.80;;;11.93;;
25962;SDS011;13760;52.588;13.406;2023-04-01T18:31:48;19.38;;;12.48;;
25962;SDS011;13760;52.588;13.406;2023-04-01T18:39:47;22.25;;;12.88;;
25962;SDS011;13760;52.588;13.406;2023-04-01T18:42:53;27.75;;;13.63;;
25962;SDS011;13760;52.588;13.406;2023-04-01T18:56:03;23.95;;;13.75;;
25962;SDS011;13760;52.588;13.406;2023-04-01T18:58:52;24.15;;;14.55;;
25962;SDS011;13760;52.588;13.406;2023-04-01T19:01:26;23.20;;;14.25;;
25962;SDS011;13760;52.588;13.406;2023-04-01T19:04:15;24.70;;;14.43;;
25962;SDS011;13760;52.588;13.406;2023-04-01T19:09:27;28.13;;;15.50;;
25962;SDS011;13760;52.588;13.406;2023-04-01T19:11:58;29.33;;;16.30;;
25962;SDS011;13760;52.588;13.406;2023-04-01T19:14:52;27.35;;;15.65;;
25962;SDS011;13760;52.588;13.406;2023-04-01T19:26:04;36.28;;;18.30;;
25962;SDS011;13760;52.588;13.406;2023-04-01T19:28:55;34.90;;;17.10;;
25962;SDS011;13760;52.588;13.406;2023-04-01T19:42:43;37.90;;;19.05;;
25962;SDS011;13760;52.588;13.406;2023-04-01T19:50:57;39.95;;;20.70;;
25962;SDS011;13760;52.588;13.406;2023-04-01T19:53:33;42.28;;;19.63;;
25962;SDS011;13760;52.588;13.406;2023-04-01T19:56:18;35.97;;;18.73;;
25962;SDS011;13760;52.588;13.406;2023-04-01T19:59:01;34.25;;;18.73;;
25962;SDS011;13760;52.588;13.406;2023-04-01T20:01:47;35.20;;;18.88;;
25962;SDS011;13760;52.588;13.406;2023-04-01T20:04:26;30.80;;;19.13;;
25962;SDS011;13760;52.588;13.406;2023-04-01T20:14:58;36.70;;;20.30;;
25962;SDS011;13760;52.588;13.406;2023-04-01T20:25:13;43.20;;;23.17;;
25962;SDS011;13760;52.588;13.406;2023-04-01T20:30:47;39.78;;;21.65;;
25962;SDS011;13760;52.588;13.406;2023-04-01T20:39:45;42.08;;;21.77;;
25962;SDS011;13760;52.588;13.406;2023-04-01T20:42:27;39.00;;;21.05;;
25962;SDS011;13760;52.588;13.406;2023-04-01T20:59:09;38.10;;;19.52;;
25962;SDS011;13760;52.588;13.406;2023-04-01T21:01:59;44.90;;;21.02;;
25962;SDS011;13760;52.588;13.406;2023-04-01T21:04:41;36.78;;;19.48;;
25962;SDS011;13760;52.588;13.406;2023-04-01T21:07:37;38.10;;;20.40;;
25962;SDS011;13760;52.588;13.406;2023-04-01T21:10:32;40.83;;;20.40;;
25962;SDS011;13760;52.588;13.406;2023-04-01T21:13:24;40.45;;;18.95;;
25962;SDS011;13760;52.588;13.406;2023-04-01T21:22:13;32.85;;;17.38;;
25962;SDS011;13760;52.588;13.406;2023-04-01T21:30:26;39.60;;;18.48;;
25962;SDS011;13760;52.588;13.406;2023-04-01T21:33:26;35.45;;;17.50;;
25962;SDS011;13760;52.588;13.406;2023-04-01T21:36:56;31.55;;;16.52;;
25962;SDS011;13760;52.588;13.406;2023-04-01T21:40:12;33.45;;;17.60;;
25962;SDS011;13760;52.588;13.406;2023-04-01T21:45:15;28.20;;;15.38;;
25962;SDS011;13760;52.588;13.406;2023-04-01T22:07:35;29.87;;;16.57;;
25962;SDS011;13760;52.588;13.406;2023-04-01T22:12:52;23.63;;;13.75;;
25962;SDS011;13760;52.588;13.406;2023-04-01T22:18:08;25.75;;;14.88;;
25962;SDS011;13760;52.588;13.406;2023-04-01T22:20:56;20.10;;;14.18;;
25962;SDS011;13760;52.588;13.406;2023-04-01T22:23:52;22.08;;;11.90;;
25962;SDS011;13760;52.588;13.406;2023-04-01T22:29:20;21.05;;;12.57;;
25962;SDS011;13760;52.588;13.406;2023-04-01T22:32:05;18.58;;;12.85;;
25962;SDS011;13760;52.588;13.406;2023-04-01T22:34:48;21.15;;;12.25;;
25962;SDS011;13760;52.588;13.406;2023-04-01T22:37:23;20.50;;;12.82;;
25962;SDS011;13760;52.588;13.406;2023-04-01T22:40:09;26.23;;;13.30;;
25962;SDS011;13760;52.588;13.406;2023-04-01T22:42:53;24.58;;;12.98;;
25962;SDS011;13760;52.588;13.406;2023-04-01T22:45:39;18.15;;;12.95;;
25962;SDS011;13760;52.588;13.406;2023-04-01T22:48:22;18.85;;;13.27;;
25962;SDS011;13760;52.588;13.406;2023-04-01T22:53:46;17.30;;;13.48;;
25962;SDS011;13760;52.588;13.406;2023-04-01T22:58:50;20.95;;;13.90;;
25962;SDS011;13760;52.588;13.406;2023-04-01T23:01:28;19.80;;;14.00;;
25962;SDS011;13760;52.588;13.406;2023-04-01T23:03:57;22.70;;;13.85;;
25962;SDS011;13760;52.588;13.406;2023-04-01T23:06:26;22.25;;;14.80;;
25962;SDS011;13760;52.588;13.406;2023-04-01T23:08:56;17.95;;;12.55;;
25962;SDS011;13760;52.588;13.406;2023-04-01T23:11:33;21.40;;;12.90;;
25962;SDS011;13760;52.588;13.406;2023-04-01T23:22:21;20.63;;;11.82;;
25962;SDS011;13760;52.588;13.406;2023-04-01T23:27:21;14.98;;;9.68;;
25962;SDS011;13760;52.588;13.406;2023-04-01T23:29:55;16.00;;;9.35;;
25962;SDS011;13760;52.588;13.406;2023-04-01T23:32:24;17.00;;;9.77;;
25962;SDS011;13760;52.588;13.406;2023-04-01T23:34:55;20.77;;;11.00;;
25962;SDS011;13760;52.588;13.406;2023-04-01T23:37:23;17.92;;;11.32;;
25962;SDS011;13760;52.588;13.406;2023-04-01T23:39:50;18.77;;;10.23;;
25962;SDS011;13760;52.588;13.406;2023-04-01T23:42:20;14.40;;;9.80;;
25962;SDS011;13760;52.588;13.406;2023-04-01T23:44:49;23.88;;;11.02;;